Buoy 16575

sailwx.info

Track history (hours):
 
Tides and Currents Weather Stations Pressure Air Temp Water Temp Dewpoint Dewpoint Depression Visibility Wind Speed Wind Dir Waves Ship Positions

Drifting buoy 16575

Last reported at 2014-Oct-31 19:00 UTC. Time now 2014-Nov-01 09:53 UTC.
Position S 27°37' E 059°30'.

Barometer 1022.7 mb
Water temperature 21.5 ° C

Date/timePositionNaut miles runAvg speedWind from/ knotsBaromVisibWave heightAir tempDewpointWater temp
2014-Oct-31 19:00S 27°37' E 059°30'1 0.5 1022.7 21.5
2014-Oct-31 17:00S 27°38' E 059°30'2 0.5 1023.8 21.5
2014-Oct-31 14:00S 27°40' E 059°30'0 0.0 1016.5 21.6
2014-Oct-31 13:00S 27°40' E 059°30'1 0.5 1014.2 21.7
2014-Oct-31 11:00S 27°41' E 059°31'1 1.0 1020.9 21.7
2014-Oct-31 10:00S 27°42' E 059°30'0 0.0 1023.2 21.7
2014-Oct-31 09:00S 27°42' E 059°30'1 1.3 1015.9 21.7
2014-Oct-31 08:00S 27°43' E 059°31'0 0.1 1018.0 21.7
2014-Oct-31 07:00S 27°43' E 059°31'0 0.1 1022.0 21.6
2014-Oct-31 06:00S 27°43' E 059°31'0 0.3 1024.0 21.5
2014-Oct-31 05:00S 27°43' E 059°31'1 0.3 1028.1 21.5
2014-Oct-31 03:00S 27°44' E 059°31'1 0.9 1022.3 21.4
2014-Oct-31 02:00S 27°45' E 059°31'1 0.7 1022.6 21.4
2014-Oct-31 00:00S 27°46' E 059°31'0 0.2 1021.9 21.4
2014-Oct-30 23:00S 27°46' E 059°31'0 0.1 1020.3 21.4
2014-Oct-30 22:00S 27°46' E 059°31'1 1.1 1020.8 21.4
2014-Oct-30 21:00S 27°47' E 059°31'1 1.3 1022.3 21.5
2014-Oct-30 20:00S 27°48' E 059°31'0 0.4 1021.6 21.5
2014-Oct-30 19:00S 27°48' E 059°31'0 0.0 1022.1 21.5
2014-Oct-30 18:00S 27°48' E 059°31'1 0.7 1021.3 21.5
2014-Oct-30 17:00S 27°49' E 059°31'1 0.4 1020.7 21.5
2014-Oct-30 15:00S 27°50' E 059°30'1 1.2 1018.8 21.5
2014-Oct-30 14:00S 27°51' E 059°31'0 0.3 1015.4 21.5
2014-Oct-30 13:00S 27°51' E 059°30'1 1.0 1018.7 21.5
2014-Oct-30 12:00S 27°52' E 059°30'0 0.2 1015.5 21.5
2014-Oct-30 11:00S 27°52' E 059°30'3 0.5 1018.1 21.5
2014-Oct-30 06:00S 27°54' E 059°29'0 0.5 1020.5 21.4
2014-Oct-30 05:00S 27°55' E 059°28'1 0.3 1026.7 21.5
2014-Oct-30 02:00S 27°55' E 059°29'1 1.1 1025.7 21.4
2014-Oct-30 01:00S 27°56' E 059°29'0 0.2 1020.2 21.4
2014-Oct-30 00:00S 27°56' E 059°29'0 0.3 1020.9 21.4
2014-Oct-29 23:00S 27°56' E 059°30'1 0.6 1021.7 21.4
2014-Oct-29 21:00S 27°57' E 059°30'2 0.8 1020.8 21.4
2014-Oct-29 18:00S 27°60' E 059°29'0 0.3 1020.9 21.4
2014-Oct-29 17:00S 27°60' E 059°30'1 1.2 1021.0 21.4
2014-Oct-29 16:00S 28°01' E 059°29'0 0.0 1021.9 21.5
2014-Oct-29 14:00S 28°01' E 059°29'1 0.8 1018.7 21.5
2014-Oct-29 13:00S 28°01' E 059°29'0 0.4 1017.7 21.5
2014-Oct-29 12:00S 28°01' E 059°28'0 0.0 1016.7 21.5
2014-Oct-29 11:00S 28°01' E 059°28'1 1.1 1014.8 21.5
2014-Oct-29 10:00S 28°02' E 059°28'1 0.7 1021.0 21.5
2014-Oct-29 08:00S 28°04' E 059°29'0 0.0 1020.0 21.5
2014-Oct-29 06:00S 28°04' E 059°29'1 0.6 1019.8 21.4
2014-Oct-29 05:00S 28°04' E 059°29'0 0.5 1023.5 21.4
2014-Oct-29 04:00S 28°04' E 059°29'1 0.6 1025.8 21.4
2014-Oct-29 03:00S 28°04' E 059°29'1 0.8 1022.6 21.4
2014-Oct-29 02:00S 28°05' E 059°29'0 0.1 1022.5 21.4
2014-Oct-29 01:00S 28°05' E 059°29'1 0.7 1021.5 21.4
2014-Oct-28 23:00S 28°07' E 059°29'0 0.0 1021.1 21.4
2014-Oct-28 21:00S 28°07' E 059°29'3 0.9 1020.6 21.5
2014-Oct-28 18:00S 28°09' E 059°30'1 1.0 1019.8 21.5
2014-Oct-28 17:00S 28°10' E 059°30'1 1.3 1018.9 21.5
2014-Oct-28 15:50S 28°11' E 059°30'1 0.3 1019.2 21.5
2014-Oct-28 14:00S 28°11' E 059°30'2 0.8 1015.2 21.6
2014-Oct-28 12:00S 28°13' E 059°30'1 0.4 1014.0 21.7
2014-Oct-28 10:00S 28°14' E 059°29'1 0.3 1013.7 21.8
2014-Oct-28 08:00S 28°14' E 059°30'1 1.2 1016.8 21.8
2014-Oct-28 07:00S 28°15' E 059°30'0 0.2 1020.3 21.9
2014-Oct-28 06:00S 28°15' E 059°30'1 1.2 1019.1 21.8
2014-Oct-28 05:00S 28°16' E 059°29'1 0.8 1018.6 21.9
2014-Oct-28 04:00S 28°17' E 059°29'0 0.2 1020.3 21.9
2014-Oct-28 03:00S 28°17' E 059°29'1 1.4 1016.5 21.9
2014-Oct-28 02:00S 28°18' E 059°29'0 0.1 1016.3 21.9
2014-Oct-28 01:00S 28°18' E 059°29'1 0.6 1015.4 21.9
2014-Oct-27 23:00S 28°19' E 059°28'1 1.2 1015.6 21.9
2014-Oct-27 22:00S 28°20' E 059°29'1 0.6 1015.3 21.9
2014-Oct-27 21:00S 28°21' E 059°30'2 0.8 1015.5 21.9
2014-Oct-27 19:00S 28°22' E 059°29'2 1.5 1016.2 21.9
2014-Oct-27 18:00S 28°24' E 059°29'0 0.0 1016.1 21.9
2014-Oct-27 17:00S 28°24' E 059°29'2 2.0 1015.8 21.9
2014-Oct-27 16:00S 28°26' E 059°28'0 0.1 1014.7 21.9
2014-Oct-27 15:00S 28°26' E 059°28'1 1.0 1014.0 21.9
2014-Oct-27 14:00S 28°26' E 059°27'1 0.9 1012.9 21.9
2014-Oct-27 13:00S 28°27' E 059°26'0 0.5 1012.5 22.0
2014-Oct-27 12:00S 28°27' E 059°26'0 0.4 1018.4 22.0
2014-Oct-27 11:00S 28°27' E 059°25'3 2.8 1014.4 22.0
2014-Oct-27 10:00S 28°28' E 059°23'4 1.8 1012.5 22.2
2014-Oct-27 08:00S 28°28' E 059°18'0 0.0 1019.0 22.2
2014-Oct-27 05:00S 28°28' E 059°18'0 0.3 1012.5 22.2
2014-Oct-27 04:00S 28°28' E 059°18'1 0.4 1016.1 22.2
2014-Oct-27 02:00S 28°28' E 059°17'0 0.3 1014.7 22.1
2014-Oct-27 01:00S 28°28' E 059°17'0 0.4 1012.6 22.1
2014-Oct-27 00:00S 28°28' E 059°17'0 0.5 1013.6 22.1
2014-Oct-26 23:00S 28°27' E 059°16'1 1.0 1013.7 22.2
2014-Oct-26 22:00S 28°28' E 059°16'1 0.4 1014.2 22.2
2014-Oct-26 20:00S 28°29' E 059°16'1 1.0 1015.5 22.1
2014-Oct-26 19:00S 28°30' E 059°15'4 2.1 1015.7 22.1
2014-Oct-26 17:00S 28°31' E 059°10'0 0.1 1016.3 22.1
2014-Oct-26 14:00S 28°31' E 059°11'1 1.5 1007.6 22.0
2014-Oct-26 13:00S 28°31' E 059°09'1 0.5 1012.0 22.0
2014-Oct-26 12:00S 28°31' E 059°09'1 0.5 1011.4 22.1
2014-Oct-26 10:00S 28°31' E 059°07'4 2.1 1017.1 22.3
2014-Oct-26 08:00S 28°32' E 059°03'0 0.0 1018.5 22.2
2014-Oct-26 07:00S 28°32' E 059°03'0 0.0 1015.4 22.1
2014-Oct-26 06:00S 28°32' E 059°03'0 0.0 1024.5 22.0
2014-Oct-26 05:00S 28°32' E 059°03'2 1.8 1019.4 22.0
2014-Oct-26 04:00S 28°32' E 059°01'0 0.2 1017.6 21.9
2014-Oct-26 03:00S 28°32' E 059°00'1 0.6 1017.6 22.0
2014-Oct-26 02:00S 28°32' E 058°60'1 0.7 1015.9 22.0
2014-Oct-26 01:00S 28°32' E 058°59'1 0.8 1015.5 22.0
2014-Oct-26 00:00S 28°32' E 058°58'1 0.4 1015.8 22.0
2014-Oct-25 22:00S 28°33' E 058°58'3 1.5 1016.6 22.1
2014-Oct-25 20:00S 28°34' E 058°55'0 0.0 1017.9 22.1
2014-Oct-25 19:00S 28°34' E 058°55'0 0.0 1018.4 22.1
2014-Oct-25 18:00S 28°34' E 058°55'3 3.3 1018.7 22.1
2014-Oct-25 17:00S 28°34' E 058°51'0 0.0 1018.6 22.1
2014-Oct-25 16:00S 28°34' E 058°51'1 0.6 1018.3 22.1
2014-Oct-25 14:00S 28°34' E 058°50'1 1.2 1016.1 22.1
2014-Oct-25 13:00S 28°33' E 058°49'2 1.8 1014.1 22.1
2014-Oct-25 12:00S 28°31' E 058°49'0 0.0 1015.1 22.2
2014-Oct-25 11:00S 28°31' E 058°49'0 0.0 1015.9 22.1
2014-Oct-25 10:00S 28°31' E 058°49'1 1.2 1017.2 22.1
2014-Oct-25 09:00S 28°30' E 058°49'2 0.4 1023.9 22.1
2014-Oct-25 05:00S 28°30' E 058°51'0 0.0 1022.3 22.0
2014-Oct-25 04:00S 28°30' E 058°51'1 0.6 1021.4 22.0
2014-Oct-25 03:00S 28°31' E 058°51'0 0.1 1021.6 21.9
2014-Oct-25 01:00S 28°31' E 058°51'0 0.3 1020.9 21.9
2014-Oct-25 00:00S 28°31' E 058°51'1 1.0 1021.0 21.9
2014-Oct-24 23:00S 28°31' E 058°50'0 0.1 1021.7 21.9
2014-Oct-24 22:00S 28°31' E 058°50'1 0.2 1022.1 21.9
2014-Oct-24 18:00S 28°32' E 058°50'1 1.1 1024.1 21.9
2014-Oct-24 17:00S 28°33' E 058°49'0 0.0 1024.2 21.9
2014-Oct-24 16:00S 28°33' E 058°49'0 0.2 1023.2 21.9
2014-Oct-24 15:00S 28°32' E 058°49'1 0.7 1023.1 21.9
2014-Oct-24 14:00S 28°32' E 058°48'0 0.2 1021.8 21.9
2014-Oct-24 13:00S 28°32' E 058°48'1 1.0 1021.1 21.9
2014-Oct-24 12:00S 28°31' E 058°48'0 0.0 1020.8 21.9
2014-Oct-24 11:00S 28°31' E 058°48'1 0.8 1022.8 21.9
2014-Oct-24 10:00S 28°30' E 058°49'2 1.6 1021.5 21.9
2014-Oct-24 09:00S 28°31' E 058°51'0 0.0 1026.3 21.9
2014-Oct-24 06:00S 28°31' E 058°51'1 0.6 1026.0 21.9
2014-Oct-24 04:00S 28°31' E 058°52'2 0.8 1025.8 21.9
2014-Oct-24 02:00S 28°33' E 058°53'1 0.8 1024.9 21.8
2014-Oct-24 01:00S 28°33' E 058°52'1 0.6 1024.6 21.8
2014-Oct-24 00:00S 28°33' E 058°53'0 0.1 1024.1 21.8
2014-Oct-23 22:00S 28°33' E 058°53'1 0.4 1025.1 21.8
2014-Oct-23 20:00S 28°34' E 058°53'2 1.0 1026.2 21.8
2014-Oct-23 18:00S 28°36' E 058°53'0 0.0 1026.4 21.9
2014-Oct-23 17:00S 28°36' E 058°53'1 0.3 1026.2 21.9
2014-Oct-23 14:00S 28°36' E 058°53'0 0.1 1023.8 21.9
2014-Oct-23 13:00S 28°36' E 058°53'1 0.4 1023.1 21.9
2014-Oct-23 11:00S 28°36' E 058°52'0 0.0 1023.9 21.9
2014-Oct-23 09:00S 28°36' E 058°52'1 0.5 1023.8 21.9
2014-Oct-23 06:00S 28°35' E 058°54'0 0.3 1023.9 21.9
2014-Oct-23 05:00S 28°35' E 058°54'1 1.1 1026.2 21.9
2014-Oct-23 04:00S 28°35' E 058°55'0 0.2 1023.7 21.8
2014-Oct-23 02:00S 28°35' E 058°55'1 0.6 1022.9 21.8
2014-Oct-23 01:00S 28°36' E 058°56'0 0.2 1022.0 21.8
2014-Oct-23 00:00S 28°36' E 058°56'1 1.1 1021.5 21.8
2014-Oct-22 23:00S 28°36' E 058°57'0 0.1 1021.7 21.8
2014-Oct-22 22:00S 28°36' E 058°57'1 1.0 1021.7 21.8
2014-Oct-22 21:00S 28°37' E 058°58'1 0.7 1021.7 21.9
2014-Oct-22 19:00S 28°38' E 058°58'1 0.6 1022.3 22.0
2014-Oct-22 17:00S 28°39' E 058°58'2 0.6 1022.2 22.2
2014-Oct-22 14:00S 28°40' E 058°57'1 1.1 1018.7 22.3
2014-Oct-22 13:00S 28°41' E 058°56'2 0.9 1017.6 22.3
2014-Oct-22 11:00S 28°41' E 058°54'0 0.0 1009.5 22.7
2014-Oct-22 10:00S 28°41' E 058°54'0 0.0 1009.1 22.7
2014-Oct-22 09:00S 28°41' E 058°54'2 1.8 1015.8 22.5
2014-Oct-22 08:00S 28°41' E 058°52'0 0.2 1014.7 22.2
2014-Oct-22 06:00S 28°40' E 058°52'1 1.0 1022.2 22.2
2014-Oct-22 05:00S 28°40' E 058°51'0 0.3 1029.9 21.9
2014-Oct-22 04:00S 28°40' E 058°51'1 0.6 1018.3 21.8
2014-Oct-22 03:00S 28°39' E 058°51'1 0.5 1026.3 21.8
2014-Oct-22 02:00S 28°39' E 058°50'0 0.2 1022.4 21.7
2014-Oct-22 01:00S 28°39' E 058°50'0 0.3 1017.6 21.7
2014-Oct-22 00:00S 28°39' E 058°50'0 0.1 1018.1 21.7
2014-Oct-21 23:00S 28°39' E 058°50'0 0.0 1018.6 21.8
2014-Oct-21 22:00S 28°39' E 058°50'1 0.6 1018.2 21.8
2014-Oct-21 21:00S 28°40' E 058°49'1 0.8 1018.6 21.8
2014-Oct-21 20:00S 28°40' E 058°48'1 0.6 1018.6 21.8
2014-Oct-21 19:00S 28°41' E 058°48'   1018.8 21.8
Track history (hours):
 
Tides and Currents Weather Stations Pressure Air Temp Water Temp Dewpoint Dewpoint Depression Visibility Wind Speed Wind Dir Waves Ship Positions

Drifting buoy 16575

Last reported at 2014-Oct-31 19:00 UTC. Time now 2014-Nov-01 09:53 UTC.
Position S 27°37' E 059°30'.

Barometer 1022.7 mb
Water temperature 21.5 ° C

Date/timePositionNaut miles runAvg speedWind from/ knotsBaromVisibWave heightAir tempDewpointWater temp
2014-Oct-31 19:00S 27°37' E 059°30'1 0.5 1022.7 21.5
2014-Oct-31 17:00S 27°38' E 059°30'2 0.5 1023.8 21.5
2014-Oct-31 14:00S 27°40' E 059°30'0 0.0 1016.5 21.6
2014-Oct-31 13:00S 27°40' E 059°30'1 0.5 1014.2 21.7
2014-Oct-31 11:00S 27°41' E 059°31'1 1.0 1020.9 21.7
2014-Oct-31 10:00S 27°42' E 059°30'0 0.0 1023.2 21.7
2014-Oct-31 09:00S 27°42' E 059°30'1 1.3 1015.9 21.7
2014-Oct-31 08:00S 27°43' E 059°31'0 0.1 1018.0 21.7
2014-Oct-31 07:00S 27°43' E 059°31'0 0.1 1022.0 21.6
2014-Oct-31 06:00S 27°43' E 059°31'0 0.3 1024.0 21.5
2014-Oct-31 05:00S 27°43' E 059°31'1 0.3 1028.1 21.5
2014-Oct-31 03:00S 27°44' E 059°31'1 0.9 1022.3 21.4
2014-Oct-31 02:00S 27°45' E 059°31'1 0.7 1022.6 21.4
2014-Oct-31 00:00S 27°46' E 059°31'0 0.2 1021.9 21.4
2014-Oct-30 23:00S 27°46' E 059°31'0 0.1 1020.3 21.4
2014-Oct-30 22:00S 27°46' E 059°31'1 1.1 1020.8 21.4
2014-Oct-30 21:00S 27°47' E 059°31'1 1.3 1022.3 21.5
2014-Oct-30 20:00S 27°48' E 059°31'0 0.4 1021.6 21.5
2014-Oct-30 19:00S 27°48' E 059°31'0 0.0 1022.1 21.5
2014-Oct-30 18:00S 27°48' E 059°31'1 0.7 1021.3 21.5
2014-Oct-30 17:00S 27°49' E 059°31'1 0.4 1020.7 21.5
2014-Oct-30 15:00S 27°50' E 059°30'1 1.2 1018.8 21.5
2014-Oct-30 14:00S 27°51' E 059°31'0 0.3 1015.4 21.5
2014-Oct-30 13:00S 27°51' E 059°30'1 1.0 1018.7 21.5
2014-Oct-30 12:00S 27°52' E 059°30'0 0.2 1015.5 21.5
2014-Oct-30 11:00S 27°52' E 059°30'3 0.5 1018.1 21.5
2014-Oct-30 06:00S 27°54' E 059°29'0 0.5 1020.5 21.4
2014-Oct-30 05:00S 27°55' E 059°28'1 0.3 1026.7 21.5
2014-Oct-30 02:00S 27°55' E 059°29'1 1.1 1025.7 21.4
2014-Oct-30 01:00S 27°56' E 059°29'0 0.2 1020.2 21.4
2014-Oct-30 00:00S 27°56' E 059°29'0 0.3 1020.9 21.4
2014-Oct-29 23:00S 27°56' E 059°30'1 0.6 1021.7 21.4
2014-Oct-29 21:00S 27°57' E 059°30'2 0.8 1020.8 21.4
2014-Oct-29 18:00S 27°60' E 059°29'0 0.3 1020.9 21.4
2014-Oct-29 17:00S 27°60' E 059°30'1 1.2 1021.0 21.4
2014-Oct-29 16:00S 28°01' E 059°29'0 0.0 1021.9 21.5
2014-Oct-29 14:00S 28°01' E 059°29'1 0.8 1018.7 21.5
2014-Oct-29 13:00S 28°01' E 059°29'0 0.4 1017.7 21.5
2014-Oct-29 12:00S 28°01' E 059°28'0 0.0 1016.7 21.5
2014-Oct-29 11:00S 28°01' E 059°28'1 1.1 1014.8 21.5
2014-Oct-29 10:00S 28°02' E 059°28'1 0.7 1021.0 21.5
2014-Oct-29 08:00S 28°04' E 059°29'0 0.0 1020.0 21.5
2014-Oct-29 06:00S 28°04' E 059°29'1 0.6 1019.8 21.4
2014-Oct-29 05:00S 28°04' E 059°29'0 0.5 1023.5 21.4
2014-Oct-29 04:00S 28°04' E 059°29'1 0.6 1025.8 21.4
2014-Oct-29 03:00S 28°04' E 059°29'1 0.8 1022.6 21.4
2014-Oct-29 02:00S 28°05' E 059°29'0 0.1 1022.5 21.4
2014-Oct-29 01:00S 28°05' E 059°29'1 0.7 1021.5 21.4
2014-Oct-28 23:00S 28°07' E 059°29'0 0.0 1021.1 21.4
2014-Oct-28 21:00S 28°07' E 059°29'3 0.9 1020.6 21.5
2014-Oct-28 18:00S 28°09' E 059°30'1 1.0 1019.8 21.5
2014-Oct-28 17:00S 28°10' E 059°30'1 1.3 1018.9 21.5
2014-Oct-28 15:50S 28°11' E 059°30'1 0.3 1019.2 21.5
2014-Oct-28 14:00S 28°11' E 059°30'2 0.8 1015.2 21.6
2014-Oct-28 12:00S 28°13' E 059°30'1 0.4 1014.0 21.7
2014-Oct-28 10:00S 28°14' E 059°29'1 0.3 1013.7 21.8
2014-Oct-28 08:00S 28°14' E 059°30'1 1.2 1016.8 21.8
2014-Oct-28 07:00S 28°15' E 059°30'0 0.2 1020.3 21.9
2014-Oct-28 06:00S 28°15' E 059°30'1 1.2 1019.1 21.8
2014-Oct-28 05:00S 28°16' E 059°29'1 0.8 1018.6 21.9
2014-Oct-28 04:00S 28°17' E 059°29'0 0.2 1020.3 21.9
2014-Oct-28 03:00S 28°17' E 059°29'1 1.4 1016.5 21.9
2014-Oct-28 02:00S 28°18' E 059°29'0 0.1 1016.3 21.9
2014-Oct-28 01:00S 28°18' E 059°29'1 0.6 1015.4 21.9
2014-Oct-27 23:00S 28°19' E 059°28'1 1.2 1015.6 21.9
2014-Oct-27 22:00S 28°20' E 059°29'1 0.6 1015.3 21.9
2014-Oct-27 21:00S 28°21' E 059°30'2 0.8 1015.5 21.9
2014-Oct-27 19:00S 28°22' E 059°29'2 1.5 1016.2 21.9
2014-Oct-27 18:00S 28°24' E 059°29'0 0.0 1016.1 21.9
2014-Oct-27 17:00S 28°24' E 059°29'2 2.0 1015.8 21.9
2014-Oct-27 16:00S 28°26' E 059°28'0 0.1 1014.7 21.9
2014-Oct-27 15:00S 28°26' E 059°28'1 1.0 1014.0 21.9
2014-Oct-27 14:00S 28°26' E 059°27'1 0.9 1012.9 21.9
2014-Oct-27 13:00S 28°27' E 059°26'0 0.5 1012.5 22.0
2014-Oct-27 12:00S 28°27' E 059°26'0 0.4 1018.4 22.0
2014-Oct-27 11:00S 28°27' E 059°25'3 2.8 1014.4 22.0
2014-Oct-27 10:00S 28°28' E 059°23'4 1.8 1012.5 22.2
2014-Oct-27 08:00S 28°28' E 059°18'0 0.0 1019.0 22.2
2014-Oct-27 05:00S 28°28' E 059°18'0 0.3 1012.5 22.2
2014-Oct-27 04:00S 28°28' E 059°18'1 0.4 1016.1 22.2
2014-Oct-27 02:00S 28°28' E 059°17'0 0.3 1014.7 22.1
2014-Oct-27 01:00S 28°28' E 059°17'0 0.4 1012.6 22.1
2014-Oct-27 00:00S 28°28' E 059°17'0 0.5 1013.6 22.1
2014-Oct-26 23:00S 28°27' E 059°16'1 1.0 1013.7 22.2
2014-Oct-26 22:00S 28°28' E 059°16'1 0.4 1014.2 22.2
2014-Oct-26 20:00S 28°29' E 059°16'1 1.0 1015.5 22.1
2014-Oct-26 19:00S 28°30' E 059°15'4 2.1 1015.7 22.1
2014-Oct-26 17:00S 28°31' E 059°10'0 0.1 1016.3 22.1
2014-Oct-26 14:00S 28°31' E 059°11'1 1.5 1007.6 22.0
2014-Oct-26 13:00S 28°31' E 059°09'1 0.5 1012.0 22.0
2014-Oct-26 12:00S 28°31' E 059°09'1 0.5 1011.4 22.1
2014-Oct-26 10:00S 28°31' E 059°07'4 2.1 1017.1 22.3
2014-Oct-26 08:00S 28°32' E 059°03'0 0.0 1018.5 22.2
2014-Oct-26 07:00S 28°32' E 059°03'0 0.0 1015.4 22.1
2014-Oct-26 06:00S 28°32' E 059°03'0 0.0 1024.5 22.0
2014-Oct-26 05:00S 28°32' E 059°03'2 1.8 1019.4 22.0
2014-Oct-26 04:00S 28°32' E 059°01'0 0.2 1017.6 21.9
2014-Oct-26 03:00S 28°32' E 059°00'1 0.6 1017.6 22.0
2014-Oct-26 02:00S 28°32' E 058°60'1 0.7 1015.9 22.0
2014-Oct-26 01:00S 28°32' E 058°59'1 0.8 1015.5 22.0
2014-Oct-26 00:00S 28°32' E 058°58'1 0.4 1015.8 22.0
2014-Oct-25 22:00S 28°33' E 058°58'3 1.5 1016.6 22.1
2014-Oct-25 20:00S 28°34' E 058°55'0 0.0 1017.9 22.1
2014-Oct-25 19:00S 28°34' E 058°55'0 0.0 1018.4 22.1
2014-Oct-25 18:00S 28°34' E 058°55'3 3.3 1018.7 22.1
2014-Oct-25 17:00S 28°34' E 058°51'0 0.0 1018.6 22.1
2014-Oct-25 16:00S 28°34' E 058°51'1 0.6 1018.3 22.1
2014-Oct-25 14:00S 28°34' E 058°50'1 1.2 1016.1 22.1
2014-Oct-25 13:00S 28°33' E 058°49'2 1.8 1014.1 22.1
2014-Oct-25 12:00S 28°31' E 058°49'0 0.0 1015.1 22.2
2014-Oct-25 11:00S 28°31' E 058°49'0 0.0 1015.9 22.1
2014-Oct-25 10:00S 28°31' E 058°49'1 1.2 1017.2 22.1
2014-Oct-25 09:00S 28°30' E 058°49'2 0.4 1023.9 22.1
2014-Oct-25 05:00S 28°30' E 058°51'0 0.0 1022.3 22.0
2014-Oct-25 04:00S 28°30' E 058°51'1 0.6 1021.4 22.0
2014-Oct-25 03:00S 28°31' E 058°51'0 0.1 1021.6 21.9
2014-Oct-25 01:00S 28°31' E 058°51'0 0.3 1020.9 21.9
2014-Oct-25 00:00S 28°31' E 058°51'1 1.0 1021.0 21.9
2014-Oct-24 23:00S 28°31' E 058°50'0 0.1 1021.7 21.9
2014-Oct-24 22:00S 28°31' E 058°50'1 0.2 1022.1 21.9
2014-Oct-24 18:00S 28°32' E 058°50'1 1.1 1024.1 21.9
2014-Oct-24 17:00S 28°33' E 058°49'0 0.0 1024.2 21.9
2014-Oct-24 16:00S 28°33' E 058°49'0 0.2 1023.2 21.9
2014-Oct-24 15:00S 28°32' E 058°49'1 0.7 1023.1 21.9
2014-Oct-24 14:00S 28°32' E 058°48'0 0.2 1021.8 21.9
2014-Oct-24 13:00S 28°32' E 058°48'1 1.0 1021.1 21.9
2014-Oct-24 12:00S 28°31' E 058°48'0 0.0 1020.8 21.9
2014-Oct-24 11:00S 28°31' E 058°48'1 0.8 1022.8 21.9
2014-Oct-24 10:00S 28°30' E 058°49'2 1.6 1021.5 21.9
2014-Oct-24 09:00S 28°31' E 058°51'0 0.0 1026.3 21.9
2014-Oct-24 06:00S 28°31' E 058°51'1 0.6 1026.0 21.9
2014-Oct-24 04:00S 28°31' E 058°52'2 0.8 1025.8 21.9
2014-Oct-24 02:00S 28°33' E 058°53'1 0.8 1024.9 21.8
2014-Oct-24 01:00S 28°33' E 058°52'1 0.6 1024.6 21.8
2014-Oct-24 00:00S 28°33' E 058°53'0 0.1 1024.1 21.8
2014-Oct-23 22:00S 28°33' E 058°53'1 0.4 1025.1 21.8
2014-Oct-23 20:00S 28°34' E 058°53'2 1.0 1026.2 21.8
2014-Oct-23 18:00S 28°36' E 058°53'0 0.0 1026.4 21.9
2014-Oct-23 17:00S 28°36' E 058°53'1 0.3 1026.2 21.9
2014-Oct-23 14:00S 28°36' E 058°53'0 0.1 1023.8 21.9
2014-Oct-23 13:00S 28°36' E 058°53'1 0.4 1023.1 21.9
2014-Oct-23 11:00S 28°36' E 058°52'0 0.0 1023.9 21.9
2014-Oct-23 09:00S 28°36' E 058°52'1 0.5 1023.8 21.9
2014-Oct-23 06:00S 28°35' E 058°54'0 0.3 1023.9 21.9
2014-Oct-23 05:00S 28°35' E 058°54'1 1.1 1026.2 21.9
2014-Oct-23 04:00S 28°35' E 058°55'0 0.2 1023.7 21.8
2014-Oct-23 02:00S 28°35' E 058°55'1 0.6 1022.9 21.8
2014-Oct-23 01:00S 28°36' E 058°56'0 0.2 1022.0 21.8
2014-Oct-23 00:00S 28°36' E 058°56'1 1.1 1021.5 21.8
2014-Oct-22 23:00S 28°36' E 058°57'0 0.1 1021.7 21.8
2014-Oct-22 22:00S 28°36' E 058°57'1 1.0 1021.7 21.8
2014-Oct-22 21:00S 28°37' E 058°58'1 0.7 1021.7 21.9
2014-Oct-22 19:00S 28°38' E 058°58'1 0.6 1022.3 22.0
2014-Oct-22 17:00S 28°39' E 058°58'2 0.6 1022.2 22.2
2014-Oct-22 14:00S 28°40' E 058°57'1 1.1 1018.7 22.3
2014-Oct-22 13:00S 28°41' E 058°56'2 0.9 1017.6 22.3
2014-Oct-22 11:00S 28°41' E 058°54'0 0.0 1009.5 22.7
2014-Oct-22 10:00S 28°41' E 058°54'0 0.0 1009.1 22.7
2014-Oct-22 09:00S 28°41' E 058°54'2 1.8 1015.8 22.5
2014-Oct-22 08:00S 28°41' E 058°52'0 0.2 1014.7 22.2
2014-Oct-22 06:00S 28°40' E 058°52'1 1.0 1022.2 22.2
2014-Oct-22 05:00S 28°40' E 058°51'0 0.3 1029.9 21.9
2014-Oct-22 04:00S 28°40' E 058°51'1 0.6 1018.3 21.8
2014-Oct-22 03:00S 28°39' E 058°51'1 0.5 1026.3 21.8
2014-Oct-22 02:00S 28°39' E 058°50'0 0.2 1022.4 21.7
2014-Oct-22 01:00S 28°39' E 058°50'0 0.3 1017.6 21.7
2014-Oct-22 00:00S 28°39' E 058°50'0 0.1 1018.1 21.7
2014-Oct-21 23:00S 28°39' E 058°50'0 0.0 1018.6 21.8
2014-Oct-21 22:00S 28°39' E 058°50'1 0.6 1018.2 21.8
2014-Oct-21 21:00S 28°40' E 058°49'1 0.8 1018.6 21.8
2014-Oct-21 20:00S 28°40' E 058°48'1 0.6 1018.6 21.8
2014-Oct-21 19:00S 28°41' E 058°48'   1018.8 21.8

Dump ship's entire track history